createdAt,value
2023-04-17T00:00:02.558Z,19.87
2023-04-17T00:02:25.701Z,19.40
2023-04-17T00:04:48.429Z,18.73
2023-04-17T00:07:11.256Z,18.10
2023-04-17T00:09:33.120Z,19.03
2023-04-17T00:11:54.608Z,21.13
2023-04-17T00:14:16.059Z,20.37
2023-04-17T00:16:37.752Z,20.50
2023-04-17T00:18:59.254Z,19.17
2023-04-17T00:21:20.938Z,21.07
2023-04-17T00:23:42.423Z,20.97
2023-04-17T00:26:03.875Z,20.03
2023-04-17T00:28:25.353Z,20.23
2023-04-17T00:30:46.927Z,20.37
2023-04-17T00:33:08.452Z,19.70
2023-04-17T00:35:29.909Z,18.60
2023-04-17T00:37:51.565Z,18.00
2023-04-17T00:40:13.173Z,16.77
2023-04-17T00:42:34.622Z,16.87
2023-04-17T00:44:56.080Z,14.33
2023-04-17T00:47:17.868Z,14.27
2023-04-17T00:49:39.528Z,17.07
2023-04-17T00:52:01.560Z,17.30
2023-04-17T00:54:23.434Z,17.93
2023-04-17T00:56:45.702Z,16.27
2023-04-17T00:59:11.832Z,16.53
2023-04-17T01:01:33.552Z,15.43
2023-04-17T01:03:55.230Z,14.47
2023-04-17T01:06:16.971Z,13.70
2023-04-17T01:08:43.414Z,15.13
2023-04-17T01:11:04.940Z,18.10
2023-04-17T01:13:26.419Z,16.13
2023-04-17T01:15:48.324Z,17.30
2023-04-17T01:18:09.842Z,17.47
2023-04-17T01:20:31.729Z,16.20
2023-04-17T01:22:53.192Z,15.63
2023-04-17T01:25:14.637Z,14.93
2023-04-17T01:27:36.071Z,16.30
2023-04-17T01:29:57.506Z,15.83
2023-04-17T01:32:18.982Z,14.53
2023-04-17T01:34:40.476Z,13.33
2023-04-17T01:37:02.257Z,14.10
2023-04-17T01:39:23.789Z,14.13
2023-04-17T01:41:45.471Z,13.37
2023-04-17T01:44:06.938Z,13.10
2023-04-17T01:46:28.501Z,12.80
2023-04-17T01:48:50.278Z,14.13
2023-04-17T01:51:11.794Z,14.57
2023-04-17T01:53:33.916Z,14.80
2023-04-17T01:55:55.449Z,14.63
2023-04-17T01:58:16.909Z,14.13
2023-04-17T02:00:38.431Z,15.47
2023-04-17T02:02:59.974Z,15.57
2023-04-17T02:05:21.506Z,16.13
2023-04-17T02:07:42.976Z,15.00
2023-04-17T02:10:04.666Z,15.77
2023-04-17T02:12:26.114Z,15.63
2023-04-17T02:14:47.545Z,16.40
2023-04-17T02:17:08.985Z,15.37
2023-04-17T02:19:30.611Z,15.93
2023-04-17T02:21:52.092Z,15.83
2023-04-17T02:24:13.557Z,15.43
2023-04-17T02:26:36.743Z,15.43
2023-04-17T02:28:58.179Z,15.23
2023-04-17T02:31:19.693Z,15.47
2023-04-17T02:33:41.354Z,16.50
2023-04-17T02:36:06.870Z,16.27
2023-04-17T02:38:30.382Z,15.90
2023-04-17T02:40:52.087Z,16.87
2023-04-17T02:43:14.096Z,17.03
2023-04-17T02:45:35.689Z,18.03
2023-04-17T02:47:57.217Z,17.30
2023-04-17T02:50:18.715Z,16.63
2023-04-17T02:52:40.325Z,16.17
2023-04-17T02:55:01.867Z,16.83
2023-04-17T02:57:24.087Z,16.80
2023-04-17T02:59:45.579Z,16.40
2023-04-17T03:02:07.118Z,16.60
2023-04-17T03:04:28.791Z,16.53
2023-04-17T03:06:50.250Z,16.57
2023-04-17T03:09:15.536Z,16.60
2023-04-17T03:11:37.014Z,16.07
2023-04-17T03:13:58.638Z,15.73
2023-04-17T03:16:20.240Z,15.17
2023-04-17T03:18:42.068Z,15.40
2023-04-17T03:21:03.563Z,14.37
2023-04-17T03:23:25.036Z,15.73
2023-04-17T03:25:46.618Z,15.33
2023-04-17T03:28:08.067Z,15.37
2023-04-17T03:30:29.530Z,15.23
2023-04-17T03:32:51.371Z,14.90
2023-04-17T03:35:12.891Z,14.93
2023-04-17T03:37:34.343Z,15.07
2023-04-17T03:39:55.941Z,15.10
2023-04-17T03:42:17.425Z,15.00
2023-04-17T03:44:38.834Z,15.37
2023-04-17T03:47:00.471Z,14.63
2023-04-17T03:49:22.001Z,15.20
2023-04-17T03:51:43.509Z,15.83
2023-04-17T03:54:04.972Z,15.30
2023-04-17T03:56:27.197Z,15.50
2023-04-17T03:58:48.679Z,15.37
2023-04-17T04:01:14.709Z,15.70
2023-04-17T04:03:39.432Z,16.13
2023-04-17T04:06:01.036Z,15.73
2023-04-17T04:08:22.509Z,15.50
2023-04-17T04:10:46.805Z,16.43
2023-04-17T04:13:08.252Z,16.63
2023-04-17T04:15:29.824Z,16.60
2023-04-17T04:17:51.322Z,16.97
2023-04-17T04:20:12.896Z,16.50
2023-04-17T04:22:34.912Z,17.23
2023-04-17T04:24:57.582Z,18.13
2023-04-17T04:27:22.695Z,17.40
2023-04-17T04:29:45.678Z,16.70
2023-04-17T04:32:09.658Z,17.47
2023-04-17T04:34:31.504Z,18.27
2023-04-17T04:36:52.953Z,17.53
2023-04-17T04:39:17.846Z,16.03
2023-04-17T04:41:51.130Z,15.57
2023-04-17T04:44:12.805Z,15.83
2023-04-17T04:46:34.239Z,15.40
2023-04-17T04:48:55.691Z,15.17
2023-04-17T04:51:19.179Z,15.03
2023-04-17T04:53:40.684Z,14.77
2023-04-17T04:56:02.218Z,15.10
2023-04-17T04:58:23.969Z,14.67
2023-04-17T05:00:45.608Z,15.30
2023-04-17T05:03:07.846Z,16.60
2023-04-17T05:05:29.618Z,14.20
2023-04-17T05:07:53.499Z,14.47
2023-04-17T05:10:15.164Z,15.40
2023-04-17T05:12:36.710Z,16.90
2023-04-17T05:14:58.161Z,14.20
2023-04-17T05:17:19.661Z,14.73
2023-04-17T05:19:41.116Z,13.87
2023-04-17T05:22:02.554Z,13.10
2023-04-17T05:24:24.076Z,13.47
2023-04-17T05:26:45.674Z,13.07
2023-04-17T05:29:07.163Z,12.37
2023-04-17T05:31:28.708Z,11.77
2023-04-17T05:33:50.363Z,12.50
2023-04-17T05:36:11.864Z,13.60
2023-04-17T05:38:33.388Z,12.97
2023-04-17T05:40:54.883Z,12.60
2023-04-17T05:43:16.584Z,12.23
2023-04-17T05:45:38.393Z,12.60
2023-04-17T05:47:59.947Z,12.73
2023-04-17T05:50:21.445Z,12.43
2023-04-17T05:52:43.061Z,12.90
2023-04-17T05:55:04.949Z,11.73
2023-04-17T05:57:26.439Z,13.60
2023-04-17T05:59:49.290Z,12.70
2023-04-17T06:02:10.840Z,13.20
2023-04-17T06:04:32.653Z,12.63
2023-04-17T06:06:54.405Z,12.23
2023-04-17T06:09:15.959Z,14.17
2023-04-17T06:11:37.470Z,12.60
2023-04-17T06:13:58.978Z,11.43
2023-04-17T06:16:20.486Z,12.13
2023-04-17T06:18:43.013Z,12.23
2023-04-17T06:21:04.957Z,12.70
2023-04-17T06:23:26.385Z,12.53
2023-04-17T06:25:47.889Z,11.63
2023-04-17T06:28:09.462Z,14.60
2023-04-17T06:30:31.000Z,18.53
2023-04-17T06:32:52.492Z,14.73
2023-04-17T06:35:13.982Z,13.03
2023-04-17T06:37:35.812Z,14.73
2023-04-17T06:39:57.273Z,11.57
2023-04-17T06:42:18.940Z,13.23
2023-04-17T06:44:40.467Z,19.87
2023-04-17T06:47:04.857Z,19.23
2023-04-17T06:49:26.315Z,14.87
2023-04-17T06:51:47.846Z,14.60
2023-04-17T06:54:10.913Z,11.13
2023-04-17T06:56:32.376Z,10.27
2023-04-17T06:58:54.212Z,14.10
2023-04-17T07:01:15.905Z,25.77
2023-04-17T07:03:39.143Z,15.83
2023-04-17T07:06:00.727Z,12.60
2023-04-17T07:08:22.574Z,11.80
2023-04-17T07:10:44.079Z,13.70
2023-04-17T07:13:05.576Z,11.10
2023-04-17T07:15:30.547Z,12.77
2023-04-17T07:17:52.193Z,11.90
2023-04-17T07:20:13.849Z,15.30
2023-04-17T07:22:35.359Z,11.47
2023-04-17T07:24:57.037Z,10.57
2023-04-17T07:27:18.597Z,10.80
2023-04-17T07:29:40.080Z,10.43
2023-04-17T07:32:02.886Z,11.27
2023-04-17T07:34:27.131Z,10.60
2023-04-17T07:36:50.271Z,10.67
2023-04-17T07:39:12.030Z,10.83
2023-04-17T07:41:33.647Z,10.63
2023-04-17T07:43:57.154Z,10.40
2023-04-17T07:46:20.039Z,10.60
2023-04-17T07:48:41.564Z,10.70
2023-04-17T07:51:03.106Z,10.57
2023-04-17T07:53:25.658Z,9.57
2023-04-17T07:55:47.225Z,9.60
2023-04-17T07:58:11.367Z,10.47
2023-04-17T08:00:33.424Z,10.17
2023-04-17T08:02:55.204Z,9.80
2023-04-17T08:05:16.952Z,11.10
2023-04-17T08:07:38.592Z,10.13
2023-04-17T08:10:00.095Z,9.57
2023-04-17T08:12:21.614Z,21.20
2023-04-17T08:14:43.810Z,21.93
2023-04-17T08:17:07.568Z,19.40
2023-04-17T08:19:30.021Z,22.87
2023-04-17T08:21:51.764Z,17.77
2023-04-17T08:24:13.285Z,17.57
2023-04-17T08:26:35.272Z,15.27
2023-04-17T08:29:01.534Z,13.03
2023-04-17T08:31:23.070Z,11.60
2023-04-17T08:33:44.634Z,12.20
2023-04-17T08:36:09.651Z,10.83
2023-04-17T08:38:31.500Z,10.63
2023-04-17T08:40:58.027Z,9.50
2023-04-17T08:43:21.209Z,9.13
2023-04-17T08:45:54.159Z,10.07
2023-04-17T08:48:16.021Z,10.27
2023-04-17T08:50:37.732Z,9.10
2023-04-17T08:52:59.195Z,9.60
2023-04-17T08:55:23.659Z,9.30
2023-04-17T08:58:01.414Z,9.87
2023-04-17T09:00:31.458Z,9.57
2023-04-17T09:02:55.193Z,9.30
2023-04-17T09:05:21.825Z,8.60
2023-04-17T09:07:44.469Z,8.80
2023-04-17T09:10:06.371Z,8.50
2023-04-17T09:12:27.922Z,8.33
2023-04-17T09:14:49.985Z,8.20
2023-04-17T09:17:11.880Z,8.90
2023-04-17T09:19:35.207Z,9.07
2023-04-17T09:21:56.855Z,10.07
2023-04-17T09:24:32.711Z,9.90
2023-04-17T09:26:54.166Z,11.67
2023-04-17T09:29:16.592Z,9.40
2023-04-17T09:31:40.186Z,9.30
2023-04-17T09:34:11.917Z,8.40
2023-04-17T09:36:37.871Z,9.30
2023-04-17T09:39:02.175Z,8.67
2023-04-17T09:41:30.506Z,9.40
2023-04-17T09:43:54.952Z,9.33
2023-04-17T09:46:38.478Z,8.55
2023-04-17T09:49:05.370Z,8.88
2023-04-17T09:51:28.080Z,8.32
2023-04-17T09:53:49.834Z,7.18
2023-04-17T09:56:13.565Z,7.55
2023-04-17T09:58:35.087Z,7.72
2023-04-17T10:00:57.402Z,7.78
2023-04-17T10:03:19.700Z,7.00
2023-04-17T10:05:41.684Z,6.93
2023-04-17T10:08:03.258Z,7.03
2023-04-17T10:10:27.256Z,7.38
2023-04-17T10:12:50.036Z,5.97
2023-04-17T10:15:14.625Z,6.50
2023-04-17T10:17:36.352Z,6.50
2023-04-17T10:20:22.941Z,6.68
2023-04-17T10:22:45.182Z,6.78
2023-04-17T10:25:12.896Z,6.80
2023-04-17T10:27:42.951Z,5.68
2023-04-17T10:30:10.545Z,6.15
2023-04-17T10:32:34.194Z,6.93
2023-04-17T10:35:22.368Z,6.18
2023-04-17T10:37:52.724Z,5.97
2023-04-17T10:40:21.516Z,6.22
2023-04-17T10:43:11.075Z,6.20
2023-04-17T10:46:00.811Z,5.80
2023-04-17T10:48:39.251Z,7.07
2023-04-17T10:51:28.862Z,6.78
2023-04-17T10:53:50.408Z,7.00
2023-04-17T10:56:17.973Z,5.80
2023-04-17T10:58:55.395Z,6.03
2023-04-17T11:01:16.942Z,5.90
2023-04-17T11:03:39.027Z,6.70
2023-04-17T11:06:00.670Z,6.40
2023-04-17T11:08:23.596Z,6.80
2023-04-17T11:10:45.073Z,6.25
2023-04-17T11:13:07.087Z,6.00
2023-04-17T11:15:34.268Z,6.20
2023-04-17T11:17:56.997Z,5.80
2023-04-17T11:20:23.322Z,6.57
2023-04-17T11:22:45.395Z,6.30
2023-04-17T11:25:07.279Z,6.13
2023-04-17T11:27:28.719Z,6.47
2023-04-17T11:29:50.439Z,7.28
2023-04-17T11:32:12.439Z,7.07
2023-04-17T11:34:34.530Z,7.45
2023-04-17T11:36:57.971Z,6.68
2023-04-17T11:39:21.302Z,6.30
2023-04-17T11:41:44.837Z,5.97
2023-04-17T11:44:10.062Z,6.60
2023-04-17T11:46:31.568Z,6.35
2023-04-17T11:48:53.220Z,6.47
2023-04-17T11:51:18.099Z,6.43
2023-04-17T11:53:47.167Z,6.03
2023-04-17T11:56:16.496Z,6.43
2023-04-17T11:58:45.780Z,6.25
2023-04-17T12:01:07.383Z,6.35
2023-04-17T12:03:32.724Z,6.43
2023-04-17T12:05:59.775Z,6.47
2023-04-17T12:08:23.092Z,6.75
2023-04-17T12:10:45.374Z,6.47
2023-04-17T12:13:07.295Z,6.47
2023-04-17T12:15:28.813Z,7.28
2023-04-17T12:17:50.390Z,7.70
2023-04-17T12:20:11.973Z,7.65
2023-04-17T12:22:33.473Z,6.53
2023-04-17T12:24:54.922Z,6.65
2023-04-17T12:27:17.312Z,7.20
2023-04-17T12:29:44.284Z,6.70
2023-04-17T12:32:06.533Z,6.82
2023-04-17T12:34:28.149Z,6.63
2023-04-17T12:36:50.973Z,6.85
2023-04-17T12:39:13.500Z,6.40
2023-04-17T12:41:34.912Z,8.18
2023-04-17T12:44:00.089Z,8.10
2023-04-17T12:46:21.840Z,8.05
2023-04-17T12:48:43.440Z,7.40
2023-04-17T12:51:04.873Z,7.22
2023-04-17T12:53:26.441Z,6.40
2023-04-17T12:55:48.154Z,6.72
2023-04-17T12:58:11.565Z,7.20
2023-04-17T13:00:33.400Z,6.75
2023-04-17T13:02:55.028Z,7.03
2023-04-17T13:05:16.731Z,7.18
2023-04-17T13:07:38.179Z,7.20
2023-04-17T13:09:59.728Z,6.53
2023-04-17T13:12:21.260Z,6.32
2023-04-17T13:14:42.847Z,6.50
2023-04-17T13:17:04.649Z,6.40
2023-04-17T13:19:26.284Z,6.65
2023-04-17T13:21:47.818Z,6.22
2023-04-17T13:24:14.449Z,6.38
2023-04-17T13:26:37.111Z,6.53
2023-04-17T13:28:58.551Z,6.43
2023-04-17T13:31:20.002Z,6.07
2023-04-17T13:33:41.658Z,6.32
2023-04-17T13:36:03.143Z,6.82
2023-04-17T13:38:24.766Z,6.93
2023-04-17T13:40:46.201Z,6.60
2023-04-17T13:43:08.430Z,6.32
2023-04-17T13:45:29.869Z,6.53
2023-04-17T13:47:51.663Z,6.63
2023-04-17T13:50:13.268Z,6.53
2023-04-17T13:52:34.733Z,6.35
2023-04-17T13:54:56.155Z,6.60
2023-04-17T13:57:20.583Z,6.78
2023-04-17T13:59:42.100Z,6.68
2023-04-17T14:02:04.225Z,6.38
2023-04-17T14:04:26.002Z,6.57
2023-04-17T14:06:49.621Z,6.65
2023-04-17T14:09:11.752Z,7.18
2023-04-17T14:11:33.468Z,7.78
2023-04-17T14:13:55.140Z,7.03
2023-04-17T14:16:18.991Z,7.15
2023-04-17T14:18:40.612Z,6.95
2023-04-17T14:21:02.128Z,7.68
2023-04-17T14:23:23.583Z,8.02
2023-04-17T14:25:45.143Z,8.18
2023-04-17T14:28:06.606Z,7.38
2023-04-17T14:30:28.046Z,6.97
2023-04-17T14:32:49.586Z,7.50
2023-04-17T14:35:11.100Z,7.15
2023-04-17T14:37:34.034Z,6.97
2023-04-17T14:39:56.039Z,7.47
2023-04-17T14:42:17.521Z,7.38
2023-04-17T14:44:38.971Z,7.75
2023-04-17T14:47:00.543Z,7.18
2023-04-17T14:49:22.365Z,7.43
2023-04-17T14:51:43.821Z,7.55
2023-04-17T14:54:06.510Z,7.15
2023-04-17T14:56:28.003Z,7.95
2023-04-17T14:58:49.591Z,7.57
2023-04-17T15:01:11.430Z,7.20
2023-04-17T15:03:33.170Z,6.25
2023-04-17T15:05:56.739Z,6.40
2023-04-17T15:08:19.440Z,7.15
2023-04-17T15:10:50.582Z,7.00
2023-04-17T15:13:12.877Z,6.88
2023-04-17T15:15:34.397Z,7.30
2023-04-17T15:17:55.927Z,6.57
2023-04-17T15:20:17.414Z,6.95
2023-04-17T15:22:38.922Z,7.05
2023-04-17T15:25:00.404Z,6.57
2023-04-17T15:27:21.927Z,7.40
2023-04-17T15:29:45.574Z,7.30
2023-04-17T15:32:07.177Z,7.40
2023-04-17T15:34:28.689Z,7.50
2023-04-17T15:36:50.249Z,7.30
2023-04-17T15:39:12.065Z,6.72
2023-04-17T15:41:33.782Z,8.32
2023-04-17T15:43:56.308Z,8.43
2023-04-17T15:46:18.044Z,7.30
2023-04-17T15:48:39.518Z,6.80
2023-04-17T15:51:03.794Z,6.75
2023-04-17T15:53:26.176Z,6.70
2023-04-17T15:55:47.680Z,5.95
2023-04-17T15:58:09.125Z,6.22
2023-04-17T16:00:30.643Z,6.13
2023-04-17T16:02:52.310Z,5.85
2023-04-17T16:05:15.462Z,6.65
2023-04-17T16:07:37.030Z,6.32
2023-04-17T16:09:58.960Z,6.60
2023-04-17T16:12:20.478Z,6.32
2023-04-17T16:14:42.380Z,6.03
2023-04-17T16:17:04.042Z,6.45
2023-04-17T16:19:28.857Z,6.35
2023-04-17T16:21:50.302Z,5.70
2023-04-17T16:24:11.734Z,6.10
2023-04-17T16:26:33.239Z,6.30
2023-04-17T16:28:55.816Z,5.30
2023-04-17T16:31:17.592Z,6.10
2023-04-17T16:33:39.722Z,6.95
2023-04-17T16:36:01.443Z,6.38
2023-04-17T16:38:23.222Z,6.65
2023-04-17T16:40:44.741Z,6.38
2023-04-17T16:43:06.363Z,6.63
2023-04-17T16:45:27.837Z,6.35
2023-04-17T16:47:49.414Z,6.93
2023-04-17T16:50:11.735Z,6.18
2023-04-17T16:52:33.336Z,6.55
2023-04-17T16:54:54.780Z,6.40
2023-04-17T16:57:16.381Z,6.20
2023-04-17T16:59:37.832Z,6.53
2023-04-17T17:02:02.324Z,6.80
2023-04-17T17:04:24.432Z,6.93
2023-04-17T17:06:46.252Z,6.38
2023-04-17T17:09:07.833Z,6.18
2023-04-17T17:11:29.538Z,6.47
2023-04-17T17:13:51.696Z,6.63
2023-04-17T17:16:15.060Z,6.57
2023-04-17T17:18:36.542Z,6.20
2023-04-17T17:21:00.087Z,6.78
2023-04-17T17:23:21.769Z,7.20
2023-04-17T17:25:43.254Z,7.10
2023-04-17T17:28:04.740Z,6.55
2023-04-17T17:30:26.269Z,7.13
2023-04-17T17:32:47.743Z,7.22
2023-04-17T17:35:09.547Z,6.95
2023-04-17T17:37:31.061Z,6.45
2023-04-17T17:39:52.560Z,6.95
2023-04-17T17:42:14.180Z,6.57
2023-04-17T17:44:36.035Z,6.45
2023-04-17T17:46:57.527Z,6.28
2023-04-17T17:49:19.010Z,6.53
2023-04-17T17:51:41.844Z,7.37
2023-04-17T17:54:03.394Z,7.17
2023-04-17T17:56:24.864Z,6.40
2023-04-17T17:58:46.299Z,6.87
2023-04-17T18:01:08.130Z,6.73
2023-04-17T18:03:29.813Z,7.00
2023-04-17T18:05:52.695Z,7.20
2023-04-17T18:08:14.707Z,7.00
2023-04-17T18:10:36.699Z,7.23
2023-04-17T18:12:58.166Z,6.60
2023-04-17T18:15:19.611Z,6.97
2023-04-17T18:17:41.089Z,7.27
2023-04-17T18:20:02.775Z,7.77
2023-04-17T18:22:24.265Z,7.27
2023-04-17T18:24:45.709Z,6.57
2023-04-17T18:27:07.138Z,6.63
2023-04-17T18:29:29.329Z,7.37
2023-04-17T18:31:52.885Z,7.67
2023-04-17T18:34:14.872Z,6.67
2023-04-17T18:36:36.544Z,6.90
2023-04-17T18:38:57.991Z,6.93
2023-04-17T18:41:20.413Z,7.00
2023-04-17T18:43:41.860Z,6.67
2023-04-17T18:46:07.608Z,6.63
2023-04-17T18:48:29.290Z,6.83
2023-04-17T18:50:51.236Z,6.73
2023-04-17T18:53:12.749Z,7.13
2023-04-17T18:55:37.150Z,7.00
2023-04-17T18:57:58.611Z,6.80
2023-04-17T19:00:20.242Z,7.07
2023-04-17T19:02:41.931Z,6.80
2023-04-17T19:05:04.503Z,6.50
2023-04-17T19:07:26.204Z,6.37
2023-04-17T19:09:47.784Z,6.57
2023-04-17T19:12:10.076Z,6.77
2023-04-17T19:14:34.622Z,6.93
2023-04-17T19:16:56.131Z,7.00
2023-04-17T19:19:17.727Z,6.40
2023-04-17T19:21:39.182Z,6.43
2023-04-17T19:24:00.709Z,6.93
2023-04-17T19:26:22.168Z,6.50
2023-04-17T19:28:43.631Z,6.30
2023-04-17T19:31:05.247Z,5.93
2023-04-17T19:33:26.691Z,6.50
2023-04-17T19:35:48.663Z,6.40
2023-04-17T19:38:10.238Z,6.57
2023-04-17T19:40:31.750Z,6.83
2023-04-17T19:42:53.831Z,6.37
2023-04-17T19:45:15.349Z,6.57
2023-04-17T19:47:39.984Z,6.43
2023-04-17T19:50:01.642Z,6.33
2023-04-17T19:52:23.854Z,6.93
2023-04-17T19:54:46.224Z,6.23
2023-04-17T19:57:07.704Z,6.20
2023-04-17T19:59:29.310Z,6.10
2023-04-17T20:01:50.955Z,6.00
2023-04-17T20:04:12.760Z,6.87
2023-04-17T20:06:34.324Z,6.83
2023-04-17T20:08:58.375Z,7.60
2023-04-17T20:11:19.869Z,7.30
2023-04-17T20:13:41.382Z,7.23
2023-04-17T20:16:02.871Z,7.03
2023-04-17T20:18:24.984Z,6.43
2023-04-17T20:20:46.695Z,6.13
2023-04-17T20:23:08.162Z,6.33
2023-04-17T20:25:29.864Z,6.20
2023-04-17T20:27:51.298Z,6.40
2023-04-17T20:30:13.221Z,6.43
2023-04-17T20:32:34.709Z,5.93
2023-04-17T20:34:56.278Z,5.90
2023-04-17T20:37:17.777Z,6.20
2023-04-17T20:39:40.810Z,6.17
2023-04-17T20:42:02.244Z,7.97
2023-04-17T20:44:23.708Z,10.50
2023-04-17T20:46:45.693Z,12.20
2023-04-17T20:49:07.259Z,12.50
2023-04-17T20:51:29.070Z,12.03
2023-04-17T20:53:51.739Z,11.03
2023-04-17T20:56:13.218Z,9.87
2023-04-17T20:58:34.696Z,11.10
2023-04-17T21:01:01.164Z,12.10
2023-04-17T21:03:23.504Z,10.70
2023-04-17T21:05:45.265Z,10.37
2023-04-17T21:08:06.949Z,9.77
2023-04-17T21:10:28.456Z,7.37
2023-04-17T21:12:49.893Z,7.00
2023-04-17T21:15:11.561Z,6.80
2023-04-17T21:17:33.108Z,7.23
2023-04-17T21:19:56.249Z,8.07
2023-04-17T21:22:18.567Z,7.20
2023-04-17T21:24:40.107Z,7.10
2023-04-17T21:27:02.511Z,7.70
2023-04-17T21:29:28.034Z,7.67
2023-04-17T21:31:49.569Z,8.03
2023-04-17T21:34:11.228Z,9.00
2023-04-17T21:36:33.085Z,8.40
2023-04-17T21:38:54.536Z,9.77
2023-04-17T21:41:16.029Z,10.27
2023-04-17T21:43:37.494Z,11.10
2023-04-17T21:45:59.031Z,10.67
2023-04-17T21:48:20.511Z,10.50
2023-04-17T21:50:43.229Z,10.47
2023-04-17T21:53:04.727Z,9.20
2023-04-17T21:55:26.392Z,8.77
2023-04-17T21:57:47.839Z,8.93
2023-04-17T22:00:12.922Z,8.50
2023-04-17T22:02:34.455Z,8.63
2023-04-17T22:04:56.144Z,9.03
2023-04-17T22:07:18.558Z,10.93
2023-04-17T22:09:40.018Z,11.03
2023-04-17T22:12:20.619Z,11.10
2023-04-17T22:14:42.083Z,10.57
2023-04-17T22:17:03.750Z,11.50
2023-04-17T22:19:25.329Z,10.80
2023-04-17T22:21:46.792Z,9.83
2023-04-17T22:24:09.137Z,9.43
2023-04-17T22:26:31.626Z,9.80
2023-04-17T22:28:53.386Z,10.30
2023-04-17T22:31:15.631Z,9.60
2023-04-17T22:33:37.951Z,10.23
2023-04-17T22:35:59.406Z,10.33
2023-04-17T22:38:21.265Z,10.13
2023-04-17T22:40:42.726Z,10.13
2023-04-17T22:43:04.348Z,9.93
2023-04-17T22:45:25.794Z,9.37
2023-04-17T22:47:47.399Z,10.53
2023-04-17T22:50:10.422Z,10.30
2023-04-17T22:52:31.862Z,9.53
2023-04-17T22:54:53.786Z,10.07
2023-04-17T22:57:15.272Z,10.27
2023-04-17T22:59:36.762Z,11.07
2023-04-17T23:01:58.393Z,12.07
2023-04-17T23:04:22.215Z,13.33
2023-04-17T23:06:43.866Z,13.30
2023-04-17T23:09:05.354Z,14.03
2023-04-17T23:11:26.836Z,14.07
2023-04-17T23:13:48.657Z,15.20
2023-04-17T23:16:10.250Z,15.17
2023-04-17T23:18:32.024Z,14.40
2023-04-17T23:20:53.514Z,14.23
2023-04-17T23:23:15.500Z,16.00
2023-04-17T23:25:36.938Z,16.57
2023-04-17T23:27:58.399Z,17.13
2023-04-17T23:30:20.124Z,16.17
2023-04-17T23:32:43.240Z,16.03
2023-04-17T23:35:05.095Z,15.70
2023-04-17T23:37:26.623Z,17.50
2023-04-17T23:39:48.155Z,16.53
2023-04-17T23:42:09.730Z,15.97
2023-04-17T23:44:31.229Z,13.20
2023-04-17T23:46:52.771Z,13.60
2023-04-17T23:49:14.290Z,13.43
2023-04-17T23:51:35.781Z,12.50
2023-04-17T23:53:59.870Z,11.70
2023-04-17T23:56:22.660Z,12.47
2023-04-17T23:58:44.128Z,12.30
